createdAt,value
2023-01-22T00:00:39.578Z,4.85
2023-01-22T00:02:44.806Z,5.07
2023-01-22T00:04:49.808Z,3.92
2023-01-22T00:06:55.069Z,4.38
2023-01-22T00:09:04.050Z,3.75
2023-01-22T00:11:09.281Z,4.03
2023-01-22T00:13:14.321Z,3.85
2023-01-22T00:15:19.470Z,4.20
2023-01-22T00:17:27.755Z,3.85
2023-01-22T00:21:37.841Z,4.53
2023-01-22T00:23:42.996Z,3.60
2023-01-22T00:25:48.507Z,3.28
2023-01-22T00:27:54.506Z,3.67
2023-01-22T00:29:59.391Z,3.15
2023-01-22T00:32:04.672Z,3.20
2023-01-22T00:34:12.593Z,2.80
2023-01-22T00:36:22.555Z,3.55
2023-01-22T00:38:29.919Z,3.38
2023-01-22T00:40:34.955Z,3.33
2023-01-22T00:42:39.823Z,3.08
2023-01-22T00:44:45.221Z,2.67
2023-01-22T00:46:50.351Z,3.30
2023-01-22T00:48:58.008Z,2.95
2023-01-22T00:51:06.363Z,2.95
2023-01-22T00:53:11.246Z,2.90
2023-01-22T00:55:18.315Z,3.15
2023-01-22T00:57:23.278Z,2.75
2023-01-22T00:59:28.231Z,3.10
2023-01-22T01:01:33.627Z,2.70
2023-01-22T01:03:39.137Z,3.17
2023-01-22T01:05:45.539Z,2.83
2023-01-22T01:07:57.719Z,3.20
2023-01-22T01:10:04.120Z,3.70
2023-01-22T01:12:10.187Z,3.15
2023-01-22T01:14:15.174Z,3.33
2023-01-22T01:16:26.657Z,2.80
2023-01-22T01:18:32.109Z,3.53
2023-01-22T01:20:37.190Z,3.00
2023-01-22T01:22:42.974Z,2.70
2023-01-22T01:24:50.909Z,3.25
2023-01-22T01:26:56.128Z,3.25
2023-01-22T01:29:01.757Z,2.90
2023-01-22T01:31:09.825Z,3.17
2023-01-22T01:33:16.094Z,2.70
2023-01-22T01:35:24.279Z,2.80
2023-01-22T01:37:29.710Z,2.60
2023-01-22T01:39:34.598Z,2.65
2023-01-22T01:41:42.470Z,2.63
2023-01-22T01:43:48.326Z,3.17
2023-01-22T01:45:53.823Z,2.90
2023-01-22T01:48:10.721Z,3.20
2023-01-22T01:50:17.766Z,2.90
2023-01-22T01:52:24.015Z,2.53
2023-01-22T01:54:30.442Z,2.95
2023-01-22T01:56:41.090Z,2.90
2023-01-22T01:58:51.396Z,2.90
2023-01-22T02:01:06.273Z,2.65
2023-01-22T02:03:11.394Z,3.22
2023-01-22T02:05:20.609Z,2.75
2023-01-22T02:07:25.866Z,3.10
2023-01-22T02:09:31.346Z,2.33
2023-01-22T02:11:37.811Z,2.50
2023-01-22T02:13:51.523Z,2.40
2023-01-22T02:15:56.587Z,2.72
2023-01-22T02:18:01.512Z,2.50
2023-01-22T02:20:09.657Z,2.42
2023-01-22T02:22:23.693Z,2.40
2023-01-22T02:24:34.137Z,2.67
2023-01-22T02:26:43.877Z,2.58
2023-01-22T02:28:52.706Z,2.22
2023-01-22T02:30:58.057Z,2.00
2023-01-22T02:33:03.642Z,2.08
2023-01-22T02:35:12.646Z,2.13
2023-01-22T02:37:22.993Z,2.10
2023-01-22T02:39:28.008Z,2.03
2023-01-22T02:41:33.441Z,1.90
2023-01-22T02:43:39.241Z,2.00
2023-01-22T02:45:44.256Z,2.10
2023-01-22T02:47:54.527Z,2.25
2023-01-22T02:49:59.383Z,2.03
2023-01-22T02:52:04.613Z,2.10
2023-01-22T02:54:12.353Z,2.00
2023-01-22T02:56:17.277Z,2.15
2023-01-22T02:58:22.149Z,2.15
2023-01-22T03:00:27.414Z,1.80
2023-01-22T03:02:33.606Z,2.20
2023-01-22T03:04:38.599Z,2.20
2023-01-22T03:06:47.234Z,2.13
2023-01-22T03:08:55.311Z,2.20
2023-01-22T03:13:23.461Z,2.17
2023-01-22T03:15:44.683Z,2.00
2023-01-22T03:20:22.176Z,2.28
2023-01-22T03:22:27.324Z,2.13
2023-01-22T03:26:43.396Z,2.00
2023-01-22T03:28:49.513Z,2.30
2023-01-22T03:30:54.447Z,2.00
2023-01-22T03:33:00.186Z,2.30
2023-01-22T03:35:06.232Z,2.45
2023-01-22T03:37:26.310Z,2.00
2023-01-22T03:39:35.350Z,2.47
2023-01-22T03:41:44.372Z,2.20
2023-01-22T03:43:50.133Z,2.65
2023-01-22T03:46:05.134Z,2.47
2023-01-22T03:48:10.484Z,1.95
2023-01-22T03:52:24.809Z,2.22
2023-01-22T03:54:29.738Z,2.30
2023-01-22T03:56:39.746Z,2.55
2023-01-22T03:58:56.369Z,2.28
2023-01-22T04:01:05.712Z,2.20
2023-01-22T04:03:10.933Z,2.40
2023-01-22T04:05:26.204Z,2.37
2023-01-22T04:07:31.245Z,2.28
2023-01-22T04:09:36.789Z,2.53
2023-01-22T04:11:41.691Z,2.10
2023-01-22T04:13:48.764Z,2.70
2023-01-22T04:16:00.438Z,2.92
2023-01-22T04:18:28.632Z,2.85
2023-01-22T04:20:48.545Z,3.05
2023-01-22T04:23:02.690Z,3.00
2023-01-22T04:25:11.090Z,3.20
2023-01-22T04:27:16.434Z,2.95
2023-01-22T04:29:21.938Z,3.05
2023-01-22T04:31:30.016Z,3.42
2023-01-22T04:33:55.271Z,3.13
2023-01-22T04:36:04.638Z,3.40
2023-01-22T04:38:12.694Z,3.30
2023-01-22T04:40:18.472Z,2.95
2023-01-22T04:42:24.406Z,2.80
2023-01-22T04:44:29.677Z,2.97
2023-01-22T04:46:41.706Z,3.45
2023-01-22T04:48:49.434Z,3.65
2023-01-22T04:50:55.716Z,3.70
2023-01-22T04:53:03.999Z,3.33
2023-01-22T04:55:18.894Z,3.15
2023-01-22T04:57:35.358Z,3.40
2023-01-22T04:59:40.408Z,3.55
2023-01-22T05:01:50.613Z,3.30
2023-01-22T05:03:55.582Z,3.35
2023-01-22T05:06:06.744Z,3.38
2023-01-22T05:08:13.925Z,3.40
2023-01-22T05:10:19.721Z,3.33
2023-01-22T05:12:25.154Z,3.30
2023-01-22T05:14:31.638Z,3.22
2023-01-22T05:16:39.570Z,3.65
2023-01-22T05:18:47.403Z,3.88
2023-01-22T05:20:53.217Z,3.45
2023-01-22T05:23:00.636Z,3.45
2023-01-22T05:25:10.847Z,2.95
2023-01-22T05:27:15.790Z,3.40
2023-01-22T05:29:38.013Z,5.30
2023-01-22T05:32:05.260Z,3.25
2023-01-22T05:34:16.421Z,3.55
2023-01-22T05:36:23.434Z,3.60
2023-01-22T05:38:35.454Z,4.18
2023-01-22T05:40:40.675Z,3.72
2023-01-22T05:42:49.936Z,3.40
2023-01-22T05:44:54.907Z,3.45
2023-01-22T05:47:03.125Z,3.70
2023-01-22T05:49:25.148Z,3.70
2023-01-22T05:51:33.913Z,3.35
2023-01-22T05:53:41.523Z,3.25
2023-01-22T05:55:46.445Z,3.53
2023-01-22T05:57:52.977Z,3.25
2023-01-22T05:59:58.740Z,3.22
2023-01-22T06:02:04.966Z,3.47
2023-01-22T06:04:12.491Z,3.58
2023-01-22T06:06:25.795Z,3.42
2023-01-22T06:08:34.174Z,3.40
2023-01-22T06:10:39.470Z,3.17
2023-01-22T06:12:44.712Z,3.28
2023-01-22T06:14:50.649Z,3.08
2023-01-22T06:16:55.898Z,3.72
2023-01-22T06:19:12.742Z,3.25
2023-01-22T06:21:25.589Z,3.35
2023-01-22T06:23:32.688Z,3.17
2023-01-22T06:25:38.532Z,3.33
2023-01-22T06:27:53.347Z,3.05
2023-01-22T06:30:02.109Z,3.42
2023-01-22T06:32:09.114Z,3.10
2023-01-22T06:34:14.045Z,3.30
2023-01-22T06:36:25.782Z,3.60
2023-01-22T06:38:31.968Z,3.50
2023-01-22T06:40:39.952Z,3.30
2023-01-22T06:42:45.752Z,3.33
2023-01-22T06:44:51.233Z,4.00
2023-01-22T06:46:57.696Z,3.57
2023-01-22T06:49:07.277Z,3.35
2023-01-22T06:51:12.660Z,3.50
2023-01-22T06:53:21.025Z,3.40
2023-01-22T06:57:35.002Z,3.50
2023-01-22T06:59:39.938Z,3.35
2023-01-22T07:01:45.208Z,4.10
2023-01-22T07:03:50.517Z,3.70
2023-01-22T07:06:00.494Z,3.38
2023-01-22T07:08:06.066Z,3.67
2023-01-22T07:10:14.220Z,3.65
2023-01-22T07:12:20.541Z,3.63
2023-01-22T07:14:36.424Z,3.55
2023-01-22T07:16:46.424Z,4.10
2023-01-22T07:18:52.068Z,3.58
2023-01-22T07:20:56.955Z,4.00
2023-01-22T07:23:02.940Z,3.65
2023-01-22T07:25:14.921Z,3.40
2023-01-22T07:27:19.850Z,3.92
2023-01-22T07:29:24.721Z,3.53
2023-01-22T07:31:30.100Z,4.00
2023-01-22T07:33:35.018Z,4.13
2023-01-22T07:35:41.313Z,4.35
2023-01-22T07:37:46.165Z,3.70
2023-01-22T07:39:52.130Z,4.00
2023-01-22T07:42:01.523Z,3.97
2023-01-22T07:44:09.118Z,3.85
2023-01-22T07:46:14.056Z,3.83
2023-01-22T07:48:20.302Z,3.85
2023-01-22T07:50:25.980Z,4.88
2023-01-22T07:52:31.285Z,3.97
2023-01-22T07:54:36.841Z,4.00
2023-01-22T07:56:43.087Z,3.88
2023-01-22T07:58:50.629Z,4.10
2023-01-22T08:00:55.609Z,4.20
2023-01-22T08:03:00.989Z,4.10
2023-01-22T08:05:07.142Z,3.95
2023-01-22T08:07:19.816Z,4.30
2023-01-22T08:09:26.024Z,4.07
2023-01-22T08:11:31.837Z,4.25
2023-01-22T08:13:36.856Z,4.38
2023-01-22T08:15:45.669Z,4.10
2023-01-22T08:20:00.053Z,4.22
2023-01-22T08:22:07.621Z,3.95
2023-01-22T08:24:14.007Z,4.10
2023-01-22T08:26:19.546Z,4.03
2023-01-22T08:28:24.435Z,3.78
2023-01-22T08:30:29.641Z,3.90
2023-01-22T08:32:37.260Z,3.80
2023-01-22T08:34:42.157Z,4.32
2023-01-22T08:36:47.857Z,3.80
2023-01-22T08:38:52.916Z,4.00
2023-01-22T08:40:57.822Z,3.60
2023-01-22T08:43:02.743Z,3.45
2023-01-22T08:45:09.876Z,3.47
2023-01-22T08:47:14.798Z,3.25
2023-01-22T08:49:23.170Z,3.50
2023-01-22T08:51:28.126Z,3.30
2023-01-22T08:53:33.424Z,3.35
2023-01-22T08:55:38.512Z,4.53
2023-01-22T08:57:43.388Z,3.53
2023-01-22T09:00:00.455Z,3.42
2023-01-22T09:02:06.987Z,4.05
2023-01-22T09:04:13.483Z,3.28
2023-01-22T09:06:20.977Z,3.67
2023-01-22T09:08:26.031Z,4.55
2023-01-22T09:10:30.925Z,3.38
2023-01-22T09:12:35.836Z,2.97
2023-01-22T09:14:40.728Z,3.00
2023-01-22T09:16:45.907Z,3.90
2023-01-22T09:18:52.517Z,3.17
2023-01-22T09:20:58.195Z,3.50
2023-01-22T09:23:07.445Z,4.00
2023-01-22T09:25:13.065Z,4.45
2023-01-22T09:27:19.542Z,5.57
2023-01-22T09:29:24.412Z,5.15
2023-01-22T09:31:29.722Z,5.10
2023-01-22T09:33:35.298Z,4.82
2023-01-22T09:35:40.274Z,5.32
2023-01-22T09:37:45.667Z,4.82
2023-01-22T09:39:54.485Z,4.32
2023-01-22T09:42:03.739Z,3.67
2023-01-22T09:44:13.970Z,4.40
2023-01-22T09:46:25.016Z,4.90
2023-01-22T09:48:39.718Z,5.10
2023-01-22T09:50:46.961Z,7.28
2023-01-22T09:52:55.224Z,5.90
2023-01-22T09:55:03.557Z,5.03
2023-01-22T09:57:29.941Z,4.35
2023-01-22T09:59:43.019Z,4.50
2023-01-22T10:01:53.798Z,3.58
2023-01-22T10:04:08.518Z,3.40
2023-01-22T10:06:18.400Z,3.17
2023-01-22T10:08:28.289Z,6.88
2023-01-22T10:10:37.265Z,3.45
2023-01-22T10:12:42.387Z,3.20
2023-01-22T10:14:48.490Z,3.35
2023-01-22T10:16:54.401Z,3.42
2023-01-22T10:19:05.683Z,3.55
2023-01-22T10:21:20.569Z,3.13
2023-01-22T10:23:29.222Z,3.72
2023-01-22T10:25:37.015Z,3.40
2023-01-22T10:27:43.972Z,3.92
2023-01-22T10:30:00.948Z,3.05
2023-01-22T10:32:19.971Z,3.40
2023-01-22T10:34:30.929Z,3.33
2023-01-22T10:36:35.824Z,2.83
2023-01-22T10:38:40.694Z,3.47
2023-01-22T10:40:54.712Z,3.15
2023-01-22T10:43:14.685Z,2.50
2023-01-22T10:45:22.640Z,2.63
2023-01-22T10:47:29.996Z,2.67
2023-01-22T10:49:34.990Z,2.40
2023-01-22T10:51:43.714Z,2.60
2023-01-22T10:53:52.530Z,2.72
2023-01-22T10:56:03.627Z,2.60
2023-01-22T10:58:21.363Z,2.38
2023-01-22T11:00:46.688Z,2.22
2023-01-22T11:02:56.715Z,2.78
2023-01-22T11:05:17.495Z,2.60
2023-01-22T11:07:25.834Z,2.95
2023-01-22T11:09:40.053Z,2.70
2023-01-22T11:11:53.519Z,2.40
2023-01-22T11:14:04.113Z,2.65
2023-01-22T11:16:16.612Z,2.70
2023-01-22T11:18:31.536Z,2.58
2023-01-22T11:20:51.277Z,2.30
2023-01-22T11:23:14.190Z,2.00
2023-01-22T11:25:21.854Z,2.17
2023-01-22T11:27:51.473Z,2.10
2023-01-22T11:30:35.170Z,1.90
2023-01-22T11:33:01.943Z,2.13
2023-01-22T11:35:20.879Z,2.10
2023-01-22T11:37:43.743Z,1.90
2023-01-22T11:40:09.117Z,2.38
2023-01-22T11:42:31.261Z,2.30
2023-01-22T11:45:04.595Z,2.60
2023-01-22T11:47:36.418Z,3.00
2023-01-22T11:49:56.218Z,2.38
2023-01-22T11:52:26.766Z,3.45
2023-01-22T11:54:50.685Z,2.67
2023-01-22T11:57:15.925Z,2.60
2023-01-22T11:59:37.324Z,3.55
2023-01-22T12:02:06.347Z,2.30
2023-01-22T12:04:33.225Z,2.67
2023-01-22T12:06:59.234Z,2.70
2023-01-22T12:09:13.894Z,2.40
2023-01-22T12:11:37.337Z,2.10
2023-01-22T12:14:35.175Z,2.13
2023-01-22T12:16:52.831Z,2.10
2023-01-22T12:19:23.262Z,2.30
2023-01-22T12:21:42.264Z,1.67
2023-01-22T12:23:55.233Z,2.38
2023-01-22T12:26:07.278Z,2.67
2023-01-22T12:28:19.780Z,2.85
2023-01-22T12:30:30.358Z,2.47
2023-01-22T12:32:40.704Z,2.67
2023-01-22T12:34:54.673Z,3.05
2023-01-22T12:37:00.531Z,2.92
2023-01-22T12:39:18.443Z,2.67
2023-01-22T12:41:45.983Z,2.65
2023-01-22T12:46:07.920Z,3.20
2023-01-22T12:48:27.952Z,2.78
2023-01-22T12:50:33.202Z,2.55
2023-01-22T12:52:41.014Z,2.95
2023-01-22T12:54:55.979Z,3.28
2023-01-22T12:57:15.616Z,3.53
2023-01-22T12:59:49.209Z,2.47
2023-01-22T13:02:03.844Z,2.67
2023-01-22T13:04:15.817Z,3.10
2023-01-22T13:06:25.072Z,2.88
2023-01-22T13:08:40.961Z,3.28
2023-01-22T13:10:57.733Z,3.22
2023-01-22T13:13:07.757Z,3.45
2023-01-22T13:15:23.228Z,3.95
2023-01-22T13:17:33.065Z,3.90
2023-01-22T13:19:45.694Z,2.72
2023-01-22T13:21:52.327Z,2.75
2023-01-22T13:24:04.526Z,3.40
2023-01-22T13:26:09.759Z,3.00
2023-01-22T13:28:20.464Z,2.85
2023-01-22T13:30:30.919Z,2.90
2023-01-22T13:32:35.839Z,3.03
2023-01-22T13:34:44.421Z,2.97
2023-01-22T13:36:51.454Z,3.10
2023-01-22T13:38:58.980Z,3.60
2023-01-22T13:41:14.901Z,3.00
2023-01-22T13:43:24.465Z,4.97
2023-01-22T13:45:34.826Z,7.93
2023-01-22T13:47:41.662Z,3.83
2023-01-22T13:49:52.336Z,3.70
2023-01-22T13:52:05.090Z,5.72
2023-01-22T13:54:19.697Z,3.00
2023-01-22T13:56:40.340Z,4.03
2023-01-22T13:58:49.701Z,4.78
2023-01-22T14:00:59.736Z,4.40
2023-01-22T14:03:25.126Z,5.85
2023-01-22T14:05:38.842Z,5.55
2023-01-22T14:07:46.105Z,3.95
2023-01-22T14:09:53.200Z,4.25
2023-01-22T14:12:02.661Z,4.10
2023-01-22T14:14:20.756Z,4.13
2023-01-22T14:16:27.606Z,3.25
2023-01-22T14:18:39.389Z,4.18
2023-01-22T14:20:52.103Z,3.72
2023-01-22T14:23:00.114Z,3.47
2023-01-22T14:27:18.463Z,4.18
2023-01-22T14:29:24.688Z,3.75
2023-01-22T14:31:32.888Z,4.10
2023-01-22T14:33:38.463Z,4.15
2023-01-22T14:35:46.548Z,3.55
2023-01-22T14:37:52.381Z,4.00
2023-01-22T14:39:57.414Z,3.70
2023-01-22T14:42:02.820Z,3.13
2023-01-22T14:44:08.339Z,4.15
2023-01-22T14:46:13.295Z,4.25
2023-01-22T14:48:20.992Z,3.88
2023-01-22T14:50:26.744Z,4.22
2023-01-22T14:52:35.012Z,5.30
2023-01-22T14:54:40.007Z,5.95
2023-01-22T14:56:45.454Z,7.10
2023-01-22T14:58:50.838Z,9.00
2023-01-22T15:00:56.470Z,6.97
2023-01-22T15:03:05.752Z,5.50
2023-01-22T15:05:12.395Z,4.80
2023-01-22T15:07:17.476Z,4.40
2023-01-22T15:09:25.098Z,5.35
2023-01-22T15:11:31.054Z,3.60
2023-01-22T15:13:36.665Z,22.50
2023-01-22T15:15:41.853Z,4.45
2023-01-22T15:17:46.913Z,6.82
2023-01-22T15:19:51.966Z,6.75
2023-01-22T15:21:57.508Z,7.32
2023-01-22T15:24:02.867Z,7.15
2023-01-22T15:26:25.446Z,7.05
2023-01-22T15:28:30.869Z,5.38
2023-01-22T15:30:35.920Z,6.28
2023-01-22T15:32:41.052Z,5.55
2023-01-22T15:34:46.065Z,5.55
2023-01-22T15:36:51.409Z,5.55
2023-01-22T15:38:56.606Z,6.00
2023-01-22T15:41:23.085Z,5.53
2023-01-22T15:43:28.448Z,5.35
2023-01-22T15:45:33.915Z,5.10
2023-01-22T15:47:38.941Z,5.38
2023-01-22T15:49:44.353Z,5.47
2023-01-22T15:51:49.305Z,6.05
2023-01-22T15:53:57.295Z,5.55
2023-01-22T15:56:02.852Z,5.97
2023-01-22T15:58:10.361Z,5.53
2023-01-22T16:00:18.049Z,6.25
2023-01-22T16:02:23.380Z,5.63
2023-01-22T16:04:28.730Z,6.30
2023-01-22T16:06:36.226Z,6.72
2023-01-22T16:08:41.650Z,6.30
2023-01-22T16:10:46.675Z,5.88
2023-01-22T16:12:52.338Z,6.88
2023-01-22T16:14:59.895Z,6.70
2023-01-22T16:17:05.204Z,6.93
2023-01-22T16:19:13.338Z,6.32
2023-01-22T16:21:19.933Z,8.02
2023-01-22T16:23:24.894Z,7.75
2023-01-22T16:25:30.229Z,8.07
2023-01-22T16:27:35.160Z,8.13
2023-01-22T16:29:40.447Z,8.23
2023-01-22T16:31:48.112Z,7.07
2023-01-22T16:33:56.520Z,6.97
2023-01-22T16:36:03.454Z,6.78
2023-01-22T16:38:08.356Z,7.60
2023-01-22T16:40:17.991Z,7.63
2023-01-22T16:42:23.292Z,8.15
2023-01-22T16:44:28.485Z,8.32
2023-01-22T16:46:36.103Z,6.80
2023-01-22T16:48:43.699Z,7.18
2023-01-22T16:50:48.859Z,7.43
2023-01-22T16:52:53.805Z,7.63
2023-01-22T16:54:58.804Z,7.03
2023-01-22T16:57:06.552Z,7.68
2023-01-22T16:59:11.547Z,6.95
2023-01-22T17:01:17.536Z,7.15
2023-01-22T17:03:22.542Z,7.30
2023-01-22T17:05:30.450Z,7.63
2023-01-22T17:07:35.480Z,7.38
2023-01-22T17:09:40.778Z,7.45
2023-01-22T17:11:47.135Z,7.60
2023-01-22T17:13:52.734Z,7.53
2023-01-22T17:15:57.723Z,7.68
2023-01-22T17:18:02.672Z,8.70
2023-01-22T17:20:09.190Z,7.45
2023-01-22T17:22:16.782Z,7.45
2023-01-22T17:24:22.683Z,7.28
2023-01-22T17:26:27.730Z,7.65
2023-01-22T17:28:32.743Z,8.18
2023-01-22T17:30:38.251Z,7.40
2023-01-22T17:32:44.429Z,8.05
2023-01-22T17:34:49.367Z,8.77
2023-01-22T17:36:54.348Z,8.45
2023-01-22T17:39:03.421Z,8.27
2023-01-22T17:41:11.431Z,8.35
2023-01-22T17:43:16.652Z,8.15
2023-01-22T17:45:21.908Z,8.30
2023-01-22T17:47:26.914Z,8.52
2023-01-22T17:49:33.371Z,8.48
2023-01-22T17:51:39.117Z,7.22
2023-01-22T17:53:46.490Z,8.20
2023-01-22T17:55:54.016Z,8.02
2023-01-22T18:00:05.001Z,7.03
2023-01-22T18:04:18.089Z,6.93
2023-01-22T18:06:23.397Z,7.00
2023-01-22T18:08:30.082Z,7.20
2023-01-22T18:10:35.029Z,8.43
2023-01-22T18:12:44.421Z,7.90
2023-01-22T18:14:49.480Z,8.20
2023-01-22T18:16:54.594Z,7.70
2023-01-22T18:19:03.418Z,7.88
2023-01-22T18:21:10.017Z,7.65
2023-01-22T18:23:16.298Z,8.00
2023-01-22T18:25:21.627Z,7.75
2023-01-22T18:27:26.800Z,7.97
2023-01-22T18:29:34.794Z,8.25
2023-01-22T18:31:40.192Z,7.47
2023-01-22T18:33:48.324Z,6.47
2023-01-22T18:35:55.748Z,6.50
2023-01-22T18:38:00.665Z,7.55
2023-01-22T18:40:06.919Z,7.00
2023-01-22T18:42:11.928Z,7.80
2023-01-22T18:44:20.007Z,6.82
2023-01-22T18:46:30.934Z,7.32
2023-01-22T18:48:39.173Z,7.22
2023-01-22T18:50:44.850Z,7.40
2023-01-22T18:52:50.120Z,7.07
2023-01-22T18:54:55.139Z,8.13
2023-01-22T18:57:00.118Z,7.80
2023-01-22T18:59:05.768Z,8.07
2023-01-22T19:01:14.421Z,8.25
2023-01-22T19:03:22.022Z,7.00
2023-01-22T19:05:28.771Z,7.57
2023-01-22T19:07:38.089Z,7.25
2023-01-22T19:09:43.064Z,7.82
2023-01-22T19:11:52.347Z,7.50
2023-01-22T19:14:00.207Z,6.25
2023-01-22T19:16:07.419Z,11.80
2023-01-22T19:18:12.944Z,10.20
2023-01-22T19:20:20.713Z,9.43
2023-01-22T19:22:25.709Z,7.57
2023-01-22T19:24:32.629Z,9.82
2023-01-22T19:26:40.027Z,7.30
2023-01-22T19:28:45.331Z,7.60
2023-01-22T19:30:50.832Z,7.82
2023-01-22T19:32:57.410Z,7.28
2023-01-22T19:35:02.645Z,6.32
2023-01-22T19:37:10.884Z,6.93
2023-01-22T19:39:16.526Z,7.80
2023-01-22T19:41:23.392Z,7.60
2023-01-22T19:43:29.073Z,7.68
2023-01-22T19:45:34.050Z,6.47
2023-01-22T19:47:39.014Z,7.15
2023-01-22T19:49:44.323Z,6.53
2023-01-22T19:51:49.975Z,7.60
2023-01-22T19:53:58.001Z,9.07
2023-01-22T19:56:03.153Z,8.93
2023-01-22T19:58:08.651Z,8.63
2023-01-22T20:00:15.822Z,7.65
2023-01-22T20:02:22.149Z,7.85
2023-01-22T20:04:31.786Z,8.20
2023-01-22T20:06:36.756Z,8.35
2023-01-22T20:08:42.004Z,8.27
2023-01-22T20:10:51.063Z,8.18
2023-01-22T20:12:55.995Z,8.13
2023-01-22T20:15:00.937Z,8.90
2023-01-22T20:17:06.412Z,9.30
2023-01-22T20:19:11.355Z,8.98
2023-01-22T20:21:17.355Z,8.15
2023-01-22T20:23:22.360Z,8.85
2023-01-22T20:25:30.912Z,8.70
2023-01-22T20:27:38.990Z,9.32
2023-01-22T20:29:44.082Z,9.25
2023-01-22T20:31:49.083Z,8.23
2023-01-22T20:33:57.060Z,9.80
2023-01-22T20:38:08.933Z,9.15
2023-01-22T20:40:16.242Z,8.52
2023-01-22T20:42:21.158Z,8.60
2023-01-22T20:44:28.823Z,9.13
2023-01-22T20:46:34.649Z,9.20
2023-01-22T20:48:39.852Z,10.18
2023-01-22T20:50:45.057Z,11.45
2023-01-22T20:52:50.023Z,13.07
2023-01-22T20:55:01.898Z,16.85
2023-01-22T20:57:07.545Z,14.02
2023-01-22T20:59:17.318Z,11.55
2023-01-22T21:01:25.796Z,12.95
2023-01-22T21:03:31.058Z,16.33
2023-01-22T21:05:37.839Z,9.85
2023-01-22T21:07:42.941Z,10.68
2023-01-22T21:09:47.945Z,10.60
2023-01-22T21:11:52.881Z,9.75
2023-01-22T21:14:00.538Z,9.43
2023-01-22T21:16:11.126Z,10.45
2023-01-22T21:18:19.055Z,9.05
2023-01-22T21:20:24.564Z,9.20
2023-01-22T21:22:30.784Z,9.77
2023-01-22T21:24:35.809Z,9.13
2023-01-22T21:26:41.221Z,8.95
2023-01-22T21:28:46.352Z,9.65
2023-01-22T21:30:51.326Z,8.82
2023-01-22T21:32:56.308Z,8.90
2023-01-22T21:35:04.742Z,9.10
2023-01-22T21:37:09.659Z,9.68
2023-01-22T21:39:18.337Z,9.55
2023-01-22T21:41:23.249Z,9.38
2023-01-22T21:43:40.655Z,11.07
2023-01-22T21:45:59.235Z,10.90
2023-01-22T21:48:04.208Z,9.52
2023-01-22T21:50:13.881Z,11.40
2023-01-22T21:52:19.114Z,11.70
2023-01-22T21:54:27.267Z,9.65
2023-01-22T21:56:32.226Z,8.63
2023-01-22T21:58:39.703Z,8.32
2023-01-22T22:00:44.676Z,8.20
2023-01-22T22:02:52.140Z,8.95
2023-01-22T22:05:01.005Z,8.65
2023-01-22T22:07:08.629Z,9.02
2023-01-22T22:09:16.176Z,8.82
2023-01-22T22:11:22.099Z,9.52
2023-01-22T22:13:30.450Z,8.48
2023-01-22T22:15:36.534Z,8.88
2023-01-22T22:17:41.872Z,8.98
2023-01-22T22:19:46.882Z,8.93
2023-01-22T22:21:54.942Z,8.27
2023-01-22T22:24:02.645Z,7.88
2023-01-22T22:26:08.744Z,8.65
2023-01-22T22:28:14.340Z,8.52
2023-01-22T22:30:20.995Z,8.65
2023-01-22T22:32:26.116Z,8.55
2023-01-22T22:34:31.121Z,8.93
2023-01-22T22:36:36.889Z,8.82
2023-01-22T22:38:43.489Z,8.57
2023-01-22T22:41:02.388Z,8.87
2023-01-22T22:43:07.398Z,9.20
2023-01-22T22:45:13.379Z,9.48
2023-01-22T22:47:18.603Z,9.13
2023-01-22T22:49:23.574Z,8.82
2023-01-22T22:51:30.963Z,9.60
2023-01-22T22:53:35.901Z,9.73
2023-01-22T22:55:43.809Z,9.75
2023-01-22T22:59:56.128Z,9.52
2023-01-22T23:02:01.114Z,9.50
2023-01-22T23:04:07.259Z,9.00
2023-01-22T23:06:15.302Z,10.63
2023-01-22T23:08:20.565Z,9.88
2023-01-22T23:10:31.519Z,9.77
2023-01-22T23:12:36.913Z,8.98
2023-01-22T23:14:44.471Z,9.13
2023-01-22T23:16:49.884Z,9.05
2023-01-22T23:18:55.034Z,9.63
2023-01-22T23:21:00.697Z,10.25
2023-01-22T23:23:07.092Z,9.85
2023-01-22T23:25:12.986Z,10.35
2023-01-22T23:27:18.225Z,10.05
2023-01-22T23:29:27.719Z,10.43
2023-01-22T23:31:39.297Z,11.10
2023-01-22T23:33:44.949Z,10.32
2023-01-22T23:35:51.399Z,10.48
2023-01-22T23:37:57.503Z,10.35
2023-01-22T23:40:03.654Z,10.32
2023-01-22T23:42:10.454Z,10.60
2023-01-22T23:44:15.778Z,11.80
2023-01-22T23:46:24.217Z,10.57
2023-01-22T23:48:32.452Z,10.88
2023-01-22T23:50:37.831Z,10.20
2023-01-22T23:52:46.612Z,10.52
2023-01-22T23:54:52.006Z,10.60
2023-01-22T23:56:57.506Z,10.80
2023-01-22T23:59:03.006Z,10.15
